sensor_id;sensor_type;location;lat;lon;timestamp;P1;durP1;ratioP1;P2;durP2;ratioP2
8964;SDS011;4517;49.020;12.066;2024-03-06T00:02:00;25.43;;;22.60;;
8964;SDS011;4517;49.020;12.066;2024-03-06T00:04:27;25.93;;;22.37;;
8964;SDS011;4517;49.020;12.066;2024-03-06T00:06:53;25.93;;;23.20;;
8964;SDS011;4517;49.020;12.066;2024-03-06T00:09:20;26.00;;;23.27;;
8964;SDS011;4517;49.020;12.066;2024-03-06T00:11:46;26.20;;;22.30;;
8964;SDS011;4517;49.020;12.066;2024-03-06T00:14:12;26.10;;;23.60;;
8964;SDS011;4517;49.020;12.066;2024-03-06T00:16:38;24.10;;;21.80;;
8964;SDS011;4517;49.020;12.066;2024-03-06T00:19:04;26.13;;;23.63;;
8964;SDS011;4517;49.020;12.066;2024-03-06T00:21:30;23.63;;;21.43;;
8964;SDS011;4517;49.020;12.066;2024-03-06T00:23:56;25.33;;;22.63;;
8964;SDS011;4517;49.020;12.066;2024-03-06T00:26:23;26.00;;;23.07;;
8964;SDS011;4517;49.020;12.066;2024-03-06T00:28:49;24.83;;;22.17;;
8964;SDS011;4517;49.020;12.066;2024-03-06T00:31:15;25.67;;;23.10;;
8964;SDS011;4517;49.020;12.066;2024-03-06T00:33:42;24.73;;;22.20;;
8964;SDS011;4517;49.020;12.066;2024-03-06T00:36:08;25.43;;;22.97;;
8964;SDS011;4517;49.020;12.066;2024-03-06T00:38:34;25.30;;;22.50;;
8964;SDS011;4517;49.020;12.066;2024-03-06T00:41:00;27.73;;;24.40;;
8964;SDS011;4517;49.020;12.066;2024-03-06T00:43:26;26.00;;;23.20;;
8964;SDS011;4517;49.020;12.066;2024-03-06T00:45:52;27.90;;;24.40;;
8964;SDS011;4517;49.020;12.066;2024-03-06T00:48:17;25.37;;;22.03;;
8964;SDS011;4517;49.020;12.066;2024-03-06T00:50:45;26.97;;;24.17;;
8964;SDS011;4517;49.020;12.066;2024-03-06T00:53:11;24.57;;;22.17;;
8964;SDS011;4517;49.020;12.066;2024-03-06T00:55:37;27.50;;;24.40;;
8964;SDS011;4517;49.020;12.066;2024-03-06T00:58:03;26.37;;;23.37;;
8964;SDS011;4517;49.020;12.066;2024-03-06T01:00:29;24.90;;;22.40;;
8964;SDS011;4517;49.020;12.066;2024-03-06T01:02:55;27.47;;;24.23;;
8964;SDS011;4517;49.020;12.066;2024-03-06T01:05:21;27.10;;;23.50;;
8964;SDS011;4517;49.020;12.066;2024-03-06T01:07:47;26.67;;;23.90;;
8964;SDS011;4517;49.020;12.066;2024-03-06T01:10:13;26.03;;;23.40;;
8964;SDS011;4517;49.020;12.066;2024-03-06T01:12:39;24.93;;;22.53;;
8964;SDS011;4517;49.020;12.066;2024-03-06T01:15:05;31.67;;;24.47;;
8964;SDS011;4517;49.020;12.066;2024-03-06T01:17:32;31.07;;;25.10;;
8964;SDS011;4517;49.020;12.066;2024-03-06T01:19:58;32.10;;;24.80;;
8964;SDS011;4517;49.020;12.066;2024-03-06T01:22:25;26.93;;;24.13;;
8964;SDS011;4517;49.020;12.066;2024-03-06T01:24:51;27.20;;;24.33;;
8964;SDS011;4517;49.020;12.066;2024-03-06T01:27:17;26.93;;;24.03;;
8964;SDS011;4517;49.020;12.066;2024-03-06T01:29:43;28.60;;;24.63;;
8964;SDS011;4517;49.020;12.066;2024-03-06T01:32:09;27.47;;;24.57;;
8964;SDS011;4517;49.020;12.066;2024-03-06T01:34:35;26.40;;;23.60;;
8964;SDS011;4517;49.020;12.066;2024-03-06T01:37:02;33.33;;;24.63;;
8964;SDS011;4517;49.020;12.066;2024-03-06T01:39:28;33.40;;;25.53;;
8964;SDS011;4517;49.020;12.066;2024-03-06T01:41:54;26.07;;;23.30;;
8964;SDS011;4517;49.020;12.066;2024-03-06T01:44:20;27.37;;;24.47;;
8964;SDS011;4517;49.020;12.066;2024-03-06T01:46:46;27.73;;;24.70;;
8964;SDS011;4517;49.020;12.066;2024-03-06T01:49:12;27.43;;;24.53;;
8964;SDS011;4517;49.020;12.066;2024-03-06T01:51:38;26.87;;;24.10;;
8964;SDS011;4517;49.020;12.066;2024-03-06T01:54:04;32.53;;;25.20;;
8964;SDS011;4517;49.020;12.066;2024-03-06T01:56:31;27.37;;;24.43;;
8964;SDS011;4517;49.020;12.066;2024-03-06T01:58:58;26.77;;;24.00;;
8964;SDS011;4517;49.020;12.066;2024-03-06T02:01:24;28.30;;;24.30;;
8964;SDS011;4517;49.020;12.066;2024-03-06T02:03:51;25.43;;;22.73;;
8964;SDS011;4517;49.020;12.066;2024-03-06T02:06:17;27.37;;;24.57;;
8964;SDS011;4517;49.020;12.066;2024-03-06T02:08:45;28.57;;;25.60;;
8964;SDS011;4517;49.020;12.066;2024-03-06T02:11:11;26.57;;;23.77;;
8964;SDS011;4517;49.020;12.066;2024-03-06T02:13:37;30.30;;;25.87;;
8964;SDS011;4517;49.020;12.066;2024-03-06T02:16:03;28.23;;;24.93;;
8964;SDS011;4517;49.020;12.066;2024-03-06T02:18:29;27.37;;;24.57;;
8964;SDS011;4517;49.020;12.066;2024-03-06T02:20:55;27.67;;;24.87;;
8964;SDS011;4517;49.020;12.066;2024-03-06T02:23:21;28.40;;;24.97;;
8964;SDS011;4517;49.020;12.066;2024-03-06T02:25:47;31.23;;;25.60;;
8964;SDS011;4517;49.020;12.066;2024-03-06T02:28:13;29.63;;;25.50;;
8964;SDS011;4517;49.020;12.066;2024-03-06T02:30:39;29.23;;;25.57;;
8964;SDS011;4517;49.020;12.066;2024-03-06T02:33:05;26.60;;;23.77;;
8964;SDS011;4517;49.020;12.066;2024-03-06T02:35:31;28.50;;;25.60;;
8964;SDS011;4517;49.020;12.066;2024-03-06T02:37:58;28.50;;;25.40;;
8964;SDS011;4517;49.020;12.066;2024-03-06T02:40:24;34.20;;;26.90;;
8964;SDS011;4517;49.020;12.066;2024-03-06T02:42:50;31.20;;;25.37;;
8964;SDS011;4517;49.020;12.066;2024-03-06T02:45:16;27.30;;;24.40;;
8964;SDS011;4517;49.020;12.066;2024-03-06T02:47:44;27.07;;;24.17;;
8964;SDS011;4517;49.020;12.066;2024-03-06T02:50:10;29.83;;;26.60;;
8964;SDS011;4517;49.020;12.066;2024-03-06T02:52:36;30.73;;;26.10;;
8964;SDS011;4517;49.020;12.066;2024-03-06T02:55:02;29.40;;;26.30;;
8964;SDS011;4517;49.020;12.066;2024-03-06T02:57:28;33.37;;;26.00;;
8964;SDS011;4517;49.020;12.066;2024-03-06T02:59:55;32.60;;;26.80;;
8964;SDS011;4517;49.020;12.066;2024-03-06T03:02:21;30.37;;;26.43;;
8964;SDS011;4517;49.020;12.066;2024-03-06T03:04:48;27.87;;;24.97;;
8964;SDS011;4517;49.020;12.066;2024-03-06T03:07:14;27.30;;;24.30;;
8964;SDS011;4517;49.020;12.066;2024-03-06T03:09:40;32.97;;;25.73;;
8964;SDS011;4517;49.020;12.066;2024-03-06T03:12:06;31.50;;;24.40;;
8964;SDS011;4517;49.020;12.066;2024-03-06T03:14:32;28.53;;;25.43;;
8964;SDS011;4517;49.020;12.066;2024-03-06T03:16:59;31.07;;;26.20;;
8964;SDS011;4517;49.020;12.066;2024-03-06T03:19:26;29.27;;;26.27;;
8964;SDS011;4517;49.020;12.066;2024-03-06T03:21:52;29.00;;;25.93;;
8964;SDS011;4517;49.020;12.066;2024-03-06T03:24:17;32.93;;;26.37;;
8964;SDS011;4517;49.020;12.066;2024-03-06T03:26:46;29.20;;;26.10;;
8964;SDS011;4517;49.020;12.066;2024-03-06T03:29:12;34.67;;;27.07;;
8964;SDS011;4517;49.020;12.066;2024-03-06T03:31:38;35.80;;;27.20;;
8964;SDS011;4517;49.020;12.066;2024-03-06T03:34:04;32.07;;;27.10;;
8964;SDS011;4517;49.020;12.066;2024-03-06T03:36:30;31.03;;;26.30;;
8964;SDS011;4517;49.020;12.066;2024-03-06T03:38:56;32.10;;;27.50;;
8964;SDS011;4517;49.020;12.066;2024-03-06T03:41:22;34.53;;;28.40;;
8964;SDS011;4517;49.020;12.066;2024-03-06T03:43:48;34.53;;;28.73;;
8964;SDS011;4517;49.020;12.066;2024-03-06T03:46:14;35.13;;;29.30;;
8964;SDS011;4517;49.020;12.066;2024-03-06T03:48:40;31.80;;;27.20;;
8964;SDS011;4517;49.020;12.066;2024-03-06T03:51:06;42.00;;;29.63;;
8964;SDS011;4517;49.020;12.066;2024-03-06T03:53:32;34.80;;;29.60;;
8964;SDS011;4517;49.020;12.066;2024-03-06T03:55:59;36.43;;;28.87;;
8964;SDS011;4517;49.020;12.066;2024-03-06T03:58:25;36.53;;;29.40;;
8964;SDS011;4517;49.020;12.066;2024-03-06T04:00:51;37.67;;;29.67;;
8964;SDS011;4517;49.020;12.066;2024-03-06T04:03:18;43.90;;;31.50;;
8964;SDS011;4517;49.020;12.066;2024-03-06T04:05:46;39.50;;;29.67;;
8964;SDS011;4517;49.020;12.066;2024-03-06T04:08:12;36.77;;;31.50;;
8964;SDS011;4517;49.020;12.066;2024-03-06T04:10:38;35.07;;;29.20;;
8964;SDS011;4517;49.020;12.066;2024-03-06T04:13:04;37.13;;;29.10;;
8964;SDS011;4517;49.020;12.066;2024-03-06T04:15:31;38.30;;;31.67;;
8964;SDS011;4517;49.020;12.066;2024-03-06T04:17:57;35.43;;;29.00;;
8964;SDS011;4517;49.020;12.066;2024-03-06T04:20:23;43.13;;;31.37;;
8964;SDS011;4517;49.020;12.066;2024-03-06T04:22:49;40.87;;;31.93;;
8964;SDS011;4517;49.020;12.066;2024-03-06T04:25:16;43.63;;;31.43;;
8964;SDS011;4517;49.020;12.066;2024-03-06T04:27:42;39.60;;;30.40;;
8964;SDS011;4517;49.020;12.066;2024-03-06T04:30:08;44.17;;;30.80;;
8964;SDS011;4517;49.020;12.066;2024-03-06T04:32:34;46.93;;;33.23;;
8964;SDS011;4517;49.020;12.066;2024-03-06T04:35:00;42.57;;;33.53;;
8964;SDS011;4517;49.020;12.066;2024-03-06T04:37:26;49.93;;;34.03;;
8964;SDS011;4517;49.020;12.066;2024-03-06T04:39:54;41.87;;;33.60;;
8964;SDS011;4517;49.020;12.066;2024-03-06T04:42:20;53.83;;;33.60;;
8964;SDS011;4517;49.020;12.066;2024-03-06T04:44:46;45.03;;;34.73;;
8964;SDS011;4517;49.020;12.066;2024-03-06T04:47:12;49.17;;;34.60;;
8964;SDS011;4517;49.020;12.066;2024-03-06T04:49:38;44.63;;;33.50;;
8964;SDS011;4517;49.020;12.066;2024-03-06T04:52:04;47.10;;;33.53;;
8964;SDS011;4517;49.020;12.066;2024-03-06T04:54:30;49.10;;;34.00;;
8964;SDS011;4517;49.020;12.066;2024-03-06T04:56:55;58.87;;;36.40;;
8964;SDS011;4517;49.020;12.066;2024-03-06T04:59:21;47.20;;;34.17;;
8964;SDS011;4517;49.020;12.066;2024-03-06T05:01:47;48.77;;;35.43;;
8964;SDS011;4517;49.020;12.066;2024-03-06T05:04:13;52.47;;;32.17;;
8964;SDS011;4517;49.020;12.066;2024-03-06T05:06:39;47.37;;;33.53;;
8964;SDS011;4517;49.020;12.066;2024-03-06T05:09:05;45.20;;;34.57;;
8964;SDS011;4517;49.020;12.066;2024-03-06T05:11:36;46.23;;;33.37;;
8964;SDS011;4517;49.020;12.066;2024-03-06T05:14:03;48.83;;;34.70;;
8964;SDS011;4517;49.020;12.066;2024-03-06T05:16:29;64.07;;;35.33;;
8964;SDS011;4517;49.020;12.066;2024-03-06T05:18:55;57.30;;;36.30;;
8964;SDS011;4517;49.020;12.066;2024-03-06T05:21:21;48.63;;;35.67;;
8964;SDS011;4517;49.020;12.066;2024-03-06T05:23:47;54.07;;;37.00;;
8964;SDS011;4517;49.020;12.066;2024-03-06T05:26:14;51.53;;;34.07;;
8964;SDS011;4517;49.020;12.066;2024-03-06T05:28:40;56.23;;;35.33;;
8964;SDS011;4517;49.020;12.066;2024-03-06T05:31:15;49.53;;;34.80;;
8964;SDS011;4517;49.020;12.066;2024-03-06T05:33:42;48.83;;;33.13;;
8964;SDS011;4517;49.020;12.066;2024-03-06T05:36:08;51.83;;;34.40;;
8964;SDS011;4517;49.020;12.066;2024-03-06T05:38:34;50.67;;;33.20;;
8964;SDS011;4517;49.020;12.066;2024-03-06T05:41:00;61.90;;;35.73;;
8964;SDS011;4517;49.020;12.066;2024-03-06T05:43:27;57.67;;;34.43;;
8964;SDS011;4517;49.020;12.066;2024-03-06T05:45:53;54.27;;;34.53;;
8964;SDS011;4517;49.020;12.066;2024-03-06T05:48:19;61.53;;;35.20;;
8964;SDS011;4517;49.020;12.066;2024-03-06T05:50:45;53.47;;;35.13;;
8964;SDS011;4517;49.020;12.066;2024-03-06T05:53:11;52.93;;;36.17;;
8964;SDS011;4517;49.020;12.066;2024-03-06T05:55:37;57.50;;;36.07;;
8964;SDS011;4517;49.020;12.066;2024-03-06T05:58:03;55.37;;;35.37;;
8964;SDS011;4517;49.020;12.066;2024-03-06T06:00:30;71.53;;;38.60;;
8964;SDS011;4517;49.020;12.066;2024-03-06T06:02:56;66.77;;;37.60;;
8964;SDS011;4517;49.020;12.066;2024-03-06T06:05:22;60.00;;;35.40;;
8964;SDS011;4517;49.020;12.066;2024-03-06T06:07:49;58.63;;;34.73;;
8964;SDS011;4517;49.020;12.066;2024-03-06T06:10:15;50.90;;;33.83;;
8964;SDS011;4517;49.020;12.066;2024-03-06T06:12:41;57.13;;;33.47;;
8964;SDS011;4517;49.020;12.066;2024-03-06T06:15:07;59.73;;;34.20;;
8964;SDS011;4517;49.020;12.066;2024-03-06T06:17:33;49.60;;;33.83;;
8964;SDS011;4517;49.020;12.066;2024-03-06T06:20:00;60.53;;;35.27;;
8964;SDS011;4517;49.020;12.066;2024-03-06T06:22:29;55.83;;;34.77;;
8964;SDS011;4517;49.020;12.066;2024-03-06T06:24:54;63.23;;;35.67;;
8964;SDS011;4517;49.020;12.066;2024-03-06T06:27:21;59.00;;;32.80;;
8964;SDS011;4517;49.020;12.066;2024-03-06T06:29:47;56.77;;;34.47;;
8964;SDS011;4517;49.020;12.066;2024-03-06T06:32:13;56.87;;;35.00;;
8964;SDS011;4517;49.020;12.066;2024-03-06T06:34:39;57.27;;;33.73;;
8964;SDS011;4517;49.020;12.066;2024-03-06T06:37:05;56.63;;;34.37;;
8964;SDS011;4517;49.020;12.066;2024-03-06T06:39:31;57.53;;;35.60;;
8964;SDS011;4517;49.020;12.066;2024-03-06T06:41:59;57.10;;;34.83;;
8964;SDS011;4517;49.020;12.066;2024-03-06T06:44:25;59.30;;;36.30;;
8964;SDS011;4517;49.020;12.066;2024-03-06T06:46:51;57.97;;;35.37;;
8964;SDS011;4517;49.020;12.066;2024-03-06T06:49:17;57.67;;;38.30;;
8964;SDS011;4517;49.020;12.066;2024-03-06T06:51:44;51.60;;;34.30;;
8964;SDS011;4517;49.020;12.066;2024-03-06T06:54:10;53.33;;;33.97;;
8964;SDS011;4517;49.020;12.066;2024-03-06T06:56:36;60.50;;;35.37;;
8964;SDS011;4517;49.020;12.066;2024-03-06T06:59:02;54.93;;;34.90;;
8964;SDS011;4517;49.020;12.066;2024-03-06T07:01:28;51.87;;;32.80;;
8964;SDS011;4517;49.020;12.066;2024-03-06T07:03:54;60.83;;;34.73;;
8964;SDS011;4517;49.020;12.066;2024-03-06T07:06:20;52.00;;;33.40;;
8964;SDS011;4517;49.020;12.066;2024-03-06T07:08:46;52.27;;;31.90;;
8964;SDS011;4517;49.020;12.066;2024-03-06T07:11:12;51.60;;;32.43;;
8964;SDS011;4517;49.020;12.066;2024-03-06T07:13:38;50.27;;;33.10;;
8964;SDS011;4517;49.020;12.066;2024-03-06T07:16:04;51.10;;;33.23;;
8964;SDS011;4517;49.020;12.066;2024-03-06T07:18:30;45.77;;;29.90;;
8964;SDS011;4517;49.020;12.066;2024-03-06T07:20:56;51.20;;;31.37;;
8964;SDS011;4517;49.020;12.066;2024-03-06T07:23:22;54.13;;;31.40;;
8964;SDS011;4517;49.020;12.066;2024-03-06T07:25:48;47.27;;;30.30;;
8964;SDS011;4517;49.020;12.066;2024-03-06T07:28:14;53.83;;;34.67;;
8964;SDS011;4517;49.020;12.066;2024-03-06T07:30:40;48.33;;;30.07;;
8964;SDS011;4517;49.020;12.066;2024-03-06T07:33:06;43.93;;;31.17;;
8964;SDS011;4517;49.020;12.066;2024-03-06T07:35:32;43.87;;;31.10;;
8964;SDS011;4517;49.020;12.066;2024-03-06T07:38:01;47.23;;;30.40;;
8964;SDS011;4517;49.020;12.066;2024-03-06T07:40:28;40.17;;;28.07;;
8964;SDS011;4517;49.020;12.066;2024-03-06T07:42:54;43.53;;;27.87;;
8964;SDS011;4517;49.020;12.066;2024-03-06T07:45:20;47.80;;;42.03;;
8964;SDS011;4517;49.020;12.066;2024-03-06T07:47:46;43.27;;;29.50;;
8964;SDS011;4517;49.020;12.066;2024-03-06T07:50:13;44.30;;;27.70;;
8964;SDS011;4517;49.020;12.066;2024-03-06T07:52:43;40.00;;;27.30;;
8964;SDS011;4517;49.020;12.066;2024-03-06T07:55:10;50.93;;;29.20;;
8964;SDS011;4517;49.020;12.066;2024-03-06T07:57:36;37.93;;;26.37;;
8964;SDS011;4517;49.020;12.066;2024-03-06T08:00:02;41.70;;;28.70;;
8964;SDS011;4517;49.020;12.066;2024-03-06T08:02:48;43.27;;;27.10;;
8964;SDS011;4517;49.020;12.066;2024-03-06T08:05:17;42.00;;;27.23;;
8964;SDS011;4517;49.020;12.066;2024-03-06T08:07:43;43.50;;;28.90;;
8964;SDS011;4517;49.020;12.066;2024-03-06T08:10:11;41.20;;;27.87;;
8964;SDS011;4517;49.020;12.066;2024-03-06T08:12:41;42.37;;;27.27;;
8964;SDS011;4517;49.020;12.066;2024-03-06T08:15:08;39.60;;;26.57;;
8964;SDS011;4517;49.020;12.066;2024-03-06T08:17:34;43.90;;;28.60;;
8964;SDS011;4517;49.020;12.066;2024-03-06T08:20:01;41.87;;;28.00;;
8964;SDS011;4517;49.020;12.066;2024-03-06T08:22:32;39.13;;;27.47;;
8964;SDS011;4517;49.020;12.066;2024-03-06T08:25:03;41.37;;;30.70;;
8964;SDS011;4517;49.020;12.066;2024-03-06T08:27:29;45.63;;;28.27;;
8964;SDS011;4517;49.020;12.066;2024-03-06T08:29:55;40.87;;;28.83;;
8964;SDS011;4517;49.020;12.066;2024-03-06T08:32:21;40.27;;;27.53;;
8964;SDS011;4517;49.020;12.066;2024-03-06T08:34:47;46.20;;;28.47;;
8964;SDS011;4517;49.020;12.066;2024-03-06T08:37:13;38.20;;;27.33;;
8964;SDS011;4517;49.020;12.066;2024-03-06T08:39:39;44.30;;;28.40;;
8964;SDS011;4517;49.020;12.066;2024-03-06T08:42:05;43.80;;;29.00;;
8964;SDS011;4517;49.020;12.066;2024-03-06T08:44:31;39.10;;;27.83;;
8964;SDS011;4517;49.020;12.066;2024-03-06T08:46:57;40.03;;;28.47;;
8964;SDS011;4517;49.020;12.066;2024-03-06T08:49:23;42.60;;;29.80;;
8964;SDS011;4517;49.020;12.066;2024-03-06T08:51:49;39.47;;;28.07;;
8964;SDS011;4517;49.020;12.066;2024-03-06T08:54:15;44.33;;;28.73;;
8964;SDS011;4517;49.020;12.066;2024-03-06T08:56:43;41.50;;;27.77;;
8964;SDS011;4517;49.020;12.066;2024-03-06T08:59:09;41.00;;;27.33;;
8964;SDS011;4517;49.020;12.066;2024-03-06T09:01:35;39.70;;;28.40;;
8964;SDS011;4517;49.020;12.066;2024-03-06T09:04:01;42.77;;;27.40;;
8964;SDS011;4517;49.020;12.066;2024-03-06T09:06:27;43.33;;;28.27;;
8964;SDS011;4517;49.020;12.066;2024-03-06T09:08:53;44.80;;;26.57;;
8964;SDS011;4517;49.020;12.066;2024-03-06T09:11:19;41.50;;;26.63;;
8964;SDS011;4517;49.020;12.066;2024-03-06T09:13:45;35.70;;;28.27;;
8964;SDS011;4517;49.020;12.066;2024-03-06T09:16:11;40.27;;;28.57;;
8964;SDS011;4517;49.020;12.066;2024-03-06T09:18:36;35.97;;;26.93;;
8964;SDS011;4517;49.020;12.066;2024-03-06T09:21:03;41.53;;;28.40;;
8964;SDS011;4517;49.020;12.066;2024-03-06T09:23:29;38.13;;;26.60;;
8964;SDS011;4517;49.020;12.066;2024-03-06T09:25:55;46.17;;;28.70;;
8964;SDS011;4517;49.020;12.066;2024-03-06T09:28:21;40.07;;;31.80;;
8964;SDS011;4517;49.020;12.066;2024-03-06T09:30:47;37.27;;;25.77;;
8964;SDS011;4517;49.020;12.066;2024-03-06T09:33:13;38.83;;;26.87;;
8964;SDS011;4517;49.020;12.066;2024-03-06T09:35:39;37.60;;;26.90;;
8964;SDS011;4517;49.020;12.066;2024-03-06T09:38:10;41.63;;;28.57;;
8964;SDS011;4517;49.020;12.066;2024-03-06T09:40:36;38.83;;;27.03;;
8964;SDS011;4517;49.020;12.066;2024-03-06T09:43:02;29.97;;;24.70;;
8964;SDS011;4517;49.020;12.066;2024-03-06T09:45:28;33.70;;;26.07;;
8964;SDS011;4517;49.020;12.066;2024-03-06T09:47:54;39.40;;;25.50;;
8964;SDS011;4517;49.020;12.066;2024-03-06T09:50:22;38.07;;;26.83;;
8964;SDS011;4517;49.020;12.066;2024-03-06T09:52:50;34.03;;;26.50;;
8964;SDS011;4517;49.020;12.066;2024-03-06T09:55:18;35.40;;;26.50;;
8964;SDS011;4517;49.020;12.066;2024-03-06T09:57:45;36.90;;;26.10;;
8964;SDS011;4517;49.020;12.066;2024-03-06T10:00:11;35.67;;;26.70;;
8964;SDS011;4517;49.020;12.066;2024-03-06T10:02:38;33.20;;;26.50;;
8964;SDS011;4517;49.020;12.066;2024-03-06T10:05:04;32.53;;;26.03;;
8964;SDS011;4517;49.020;12.066;2024-03-06T10:07:31;30.47;;;24.10;;
8964;SDS011;4517;49.020;12.066;2024-03-06T10:09:57;27.50;;;23.93;;
8964;SDS011;4517;49.020;12.066;2024-03-06T10:12:23;32.40;;;25.83;;
8964;SDS011;4517;49.020;12.066;2024-03-06T10:14:52;31.03;;;22.90;;
8964;SDS011;4517;49.020;12.066;2024-03-06T10:17:19;29.60;;;24.60;;
8964;SDS011;4517;49.020;12.066;2024-03-06T10:19:48;34.47;;;24.67;;
8964;SDS011;4517;49.020;12.066;2024-03-06T10:22:18;31.97;;;24.10;;
8964;SDS011;4517;49.020;12.066;2024-03-06T10:24:45;29.10;;;25.37;;
8964;SDS011;4517;49.020;12.066;2024-03-06T10:27:14;42.27;;;25.87;;
8964;SDS011;4517;49.020;12.066;2024-03-06T10:29:41;32.87;;;24.70;;
8964;SDS011;4517;49.020;12.066;2024-03-06T10:32:07;35.50;;;24.03;;
8964;SDS011;4517;49.020;12.066;2024-03-06T10:34:33;29.53;;;24.87;;
8964;SDS011;4517;49.020;12.066;2024-03-06T10:37:01;32.23;;;24.20;;
8964;SDS011;4517;49.020;12.066;2024-03-06T10:39:29;31.70;;;24.33;;
8964;SDS011;4517;49.020;12.066;2024-03-06T10:41:56;31.97;;;25.83;;
8964;SDS011;4517;49.020;12.066;2024-03-06T10:44:23;34.77;;;25.70;;
8964;SDS011;4517;49.020;12.066;2024-03-06T10:47:11;29.77;;;25.60;;
8964;SDS011;4517;49.020;12.066;2024-03-06T10:49:36;30.03;;;25.20;;
8964;SDS011;4517;49.020;12.066;2024-03-06T10:52:05;31.30;;;25.97;;
8964;SDS011;4517;49.020;12.066;2024-03-06T10:54:32;36.27;;;26.53;;
8964;SDS011;4517;49.020;12.066;2024-03-06T10:56:59;33.83;;;25.03;;
8964;SDS011;4517;49.020;12.066;2024-03-06T10:59:26;30.50;;;25.00;;
8964;SDS011;4517;49.020;12.066;2024-03-06T11:01:53;39.40;;;24.30;;
8964;SDS011;4517;49.020;12.066;2024-03-06T11:04:20;30.60;;;25.63;;
8964;SDS011;4517;49.020;12.066;2024-03-06T11:06:45;25.70;;;23.00;;
8964;SDS011;4517;49.020;12.066;2024-03-06T11:09:13;29.70;;;24.30;;
8964;SDS011;4517;49.020;12.066;2024-03-06T11:11:47;34.70;;;26.80;;
8964;SDS011;4517;49.020;12.066;2024-03-06T11:14:13;31.30;;;26.03;;
8964;SDS011;4517;49.020;12.066;2024-03-06T11:16:58;31.20;;;24.20;;
8964;SDS011;4517;49.020;12.066;2024-03-06T11:19:25;40.23;;;25.67;;
8964;SDS011;4517;49.020;12.066;2024-03-06T11:21:51;31.30;;;26.90;;
8964;SDS011;4517;49.020;12.066;2024-03-06T11:24:18;34.30;;;26.53;;
8964;SDS011;4517;49.020;12.066;2024-03-06T11:26:54;28.53;;;25.00;;
8964;SDS011;4517;49.020;12.066;2024-03-06T11:29:26;30.00;;;24.20;;
8964;SDS011;4517;49.020;12.066;2024-03-06T11:31:57;31.47;;;24.90;;
8964;SDS011;4517;49.020;12.066;2024-03-06T11:34:23;35.37;;;25.27;;
8964;SDS011;4517;49.020;12.066;2024-03-06T11:36:52;32.37;;;25.00;;
8964;SDS011;4517;49.020;12.066;2024-03-06T11:39:18;31.90;;;23.43;;
8964;SDS011;4517;49.020;12.066;2024-03-06T11:41:48;30.40;;;23.87;;
8964;SDS011;4517;49.020;12.066;2024-03-06T11:44:19;29.33;;;23.80;;
8964;SDS011;4517;49.020;12.066;2024-03-06T11:46:47;30.57;;;25.47;;
8964;SDS011;4517;49.020;12.066;2024-03-06T11:49:17;29.50;;;23.93;;
8964;SDS011;4517;49.020;12.066;2024-03-06T11:51:45;28.83;;;24.03;;
8964;SDS011;4517;49.020;12.066;2024-03-06T11:54:12;29.30;;;23.17;;
8964;SDS011;4517;49.020;12.066;2024-03-06T11:56:41;28.40;;;23.73;;
8964;SDS011;4517;49.020;12.066;2024-03-06T11:59:07;30.23;;;23.73;;
8964;SDS011;4517;49.020;12.066;2024-03-06T12:01:34;27.90;;;23.30;;
8964;SDS011;4517;49.020;12.066;2024-03-06T12:04:01;27.60;;;24.60;;
8964;SDS011;4517;49.020;12.066;2024-03-06T12:06:27;28.50;;;24.43;;
8964;SDS011;4517;49.020;12.066;2024-03-06T12:08:53;27.87;;;23.63;;
8964;SDS011;4517;49.020;12.066;2024-03-06T12:11:19;29.80;;;23.67;;
8964;SDS011;4517;49.020;12.066;2024-03-06T12:13:50;29.10;;;23.17;;
8964;SDS011;4517;49.020;12.066;2024-03-06T12:16:16;35.10;;;27.43;;
8964;SDS011;4517;49.020;12.066;2024-03-06T12:18:42;27.73;;;23.10;;
8964;SDS011;4517;49.020;12.066;2024-03-06T12:21:10;28.17;;;24.20;;
8964;SDS011;4517;49.020;12.066;2024-03-06T12:23:36;34.40;;;25.13;;
8964;SDS011;4517;49.020;12.066;2024-03-06T12:26:03;31.37;;;25.23;;
8964;SDS011;4517;49.020;12.066;2024-03-06T12:28:29;31.50;;;24.93;;
8964;SDS011;4517;49.020;12.066;2024-03-06T12:30:55;30.20;;;24.33;;
8964;SDS011;4517;49.020;12.066;2024-03-06T12:33:25;32.10;;;24.97;;
8964;SDS011;4517;49.020;12.066;2024-03-06T12:36:07;33.10;;;24.30;;
8964;SDS011;4517;49.020;12.066;2024-03-06T12:38:36;36.37;;;27.47;;
8964;SDS011;4517;49.020;12.066;2024-03-06T12:41:03;28.67;;;23.80;;
8964;SDS011;4517;49.020;12.066;2024-03-06T12:43:29;30.37;;;24.27;;
8964;SDS011;4517;49.020;12.066;2024-03-06T12:45:55;35.30;;;23.90;;
8964;SDS011;4517;49.020;12.066;2024-03-06T12:48:22;29.00;;;23.03;;
8964;SDS011;4517;49.020;12.066;2024-03-06T12:50:48;31.67;;;23.40;;
8964;SDS011;4517;49.020;12.066;2024-03-06T12:53:23;35.30;;;25.87;;
8964;SDS011;4517;49.020;12.066;2024-03-06T12:55:49;30.60;;;25.27;;
8964;SDS011;4517;49.020;12.066;2024-03-06T12:58:15;36.43;;;25.70;;
8964;SDS011;4517;49.020;12.066;2024-03-06T13:00:41;27.70;;;23.77;;
8964;SDS011;4517;49.020;12.066;2024-03-06T13:03:07;28.57;;;23.63;;
8964;SDS011;4517;49.020;12.066;2024-03-06T13:05:33;30.30;;;24.20;;
8964;SDS011;4517;49.020;12.066;2024-03-06T13:07:59;31.17;;;22.70;;
8964;SDS011;4517;49.020;12.066;2024-03-06T13:10:25;30.07;;;24.00;;
8964;SDS011;4517;49.020;12.066;2024-03-06T13:12:51;27.00;;;23.60;;
8964;SDS011;4517;49.020;12.066;2024-03-06T13:15:17;27.97;;;24.90;;
8964;SDS011;4517;49.020;12.066;2024-03-06T13:17:43;27.40;;;24.03;;
8964;SDS011;4517;49.020;12.066;2024-03-06T13:20:09;26.00;;;23.30;;
8964;SDS011;4517;49.020;12.066;2024-03-06T13:22:39;29.70;;;23.23;;
8964;SDS011;4517;49.020;12.066;2024-03-06T13:25:05;29.53;;;24.23;;
8964;SDS011;4517;49.020;12.066;2024-03-06T13:27:31;30.23;;;25.37;;
8964;SDS011;4517;49.020;12.066;2024-03-06T13:29:57;29.90;;;24.20;;
8964;SDS011;4517;49.020;12.066;2024-03-06T13:32:23;28.37;;;23.57;;
8964;SDS011;4517;49.020;12.066;2024-03-06T13:34:49;27.50;;;23.53;;
8964;SDS011;4517;49.020;12.066;2024-03-06T13:37:15;27.53;;;23.50;;
8964;SDS011;4517;49.020;12.066;2024-03-06T13:39:41;29.70;;;24.40;;
8964;SDS011;4517;49.020;12.066;2024-03-06T13:42:07;30.33;;;24.67;;
8964;SDS011;4517;49.020;12.066;2024-03-06T13:44:35;33.63;;;26.00;;
8964;SDS011;4517;49.020;12.066;2024-03-06T13:47:01;29.43;;;25.43;;
8964;SDS011;4517;49.020;12.066;2024-03-06T13:49:34;29.70;;;25.60;;
8964;SDS011;4517;49.020;12.066;2024-03-06T13:52:01;35.53;;;25.60;;
8964;SDS011;4517;49.020;12.066;2024-03-06T13:54:26;32.70;;;26.20;;
8964;SDS011;4517;49.020;12.066;2024-03-06T13:56:52;35.03;;;25.17;;
8964;SDS011;4517;49.020;12.066;2024-03-06T13:59:26;34.37;;;26.13;;
8964;SDS011;4517;49.020;12.066;2024-03-06T14:01:52;32.50;;;25.77;;
8964;SDS011;4517;49.020;12.066;2024-03-06T14:04:18;28.97;;;24.20;;
8964;SDS011;4517;49.020;12.066;2024-03-06T14:06:44;31.73;;;24.57;;
8964;SDS011;4517;49.020;12.066;2024-03-06T14:09:10;30.23;;;24.37;;
8964;SDS011;4517;49.020;12.066;2024-03-06T14:11:38;35.50;;;25.30;;
8964;SDS011;4517;49.020;12.066;2024-03-06T14:14:05;30.37;;;25.43;;
8964;SDS011;4517;49.020;12.066;2024-03-06T14:16:31;32.77;;;24.37;;
8964;SDS011;4517;49.020;12.066;2024-03-06T14:18:57;29.47;;;24.90;;
8964;SDS011;4517;49.020;12.066;2024-03-06T14:21:23;28.73;;;24.87;;
8964;SDS011;4517;49.020;12.066;2024-03-06T14:23:49;32.43;;;25.30;;
8964;SDS011;4517;49.020;12.066;2024-03-06T14:26:15;30.40;;;25.10;;
8964;SDS011;4517;49.020;12.066;2024-03-06T14:28:41;38.83;;;26.27;;
8964;SDS011;4517;49.020;12.066;2024-03-06T14:31:07;29.37;;;24.63;;